TimePST,TemperatureF,Dew PointF,Humidity,Sea Level PressureIn,VisibilityMPH,Wind Direction,Wind SpeedMPH,Gust SpeedMPH,PrecipitationIn,Events,Conditions,WindDirDegrees,DateUTC
12:55 AM,35.1,26.1,70,30.06,10.0,NW,9.2,-,N/A,,Overcast,320,2012-12-08 08:55:00
1:55 AM,35.1,27.0,72,30.08,10.0,NW,10.4,-,N/A,,Overcast,310,2012-12-08 09:55:00
3:55 AM,33.1,28.0,82,30.10,10.0,NW,8.1,-,N/A,,Overcast,320,2012-12-08 11:55:00
4:55 AM,34.0,28.0,79,30.11,10.0,WNW,9.2,-,N/A,,Overcast,300,2012-12-08 12:55:00
5:55 AM,33.1,28.0,82,30.12,10.0,WNW,11.5,-,N/A,,Scattered Clouds,290,2012-12-08 13:55:00
6:55 AM,34.0,28.0,79,30.13,10.0,NNW,6.9,-,N/A,,Overcast,330,2012-12-08 14:55:00
7:55 AM,33.1,28.9,85,30.15,10.0,NW,6.9,-,N/A,,Overcast,310,2012-12-08 15:55:00
8:55 AM,34.0,28.0,79,30.16,10.0,NNW,6.9,-,N/A,,Overcast,330,2012-12-08 16:55:00
9:55 AM,35.1,28.0,76,30.18,10.0,NW,9.2,-,N/A,,Overcast,310,2012-12-08 17:55:00
10:55 AM,35.1,28.0,76,30.19,10.0,WNW,6.9,-,N/A,,Overcast,300,2012-12-08 18:55:00
11:55 AM,36.0,28.0,73,30.19,10.0,NW,4.6,-,N/A,,Partly Cloudy,320,2012-12-08 19:55:00
12:55 PM,37.0,28.9,73,30.19,10.0,West,5.8,-,N/A,,Clear,260,2012-12-08 20:55:00
1:55 PM,37.0,28.9,73,30.19,10.0,Calm,Calm,-,N/A,,Clear,0,2012-12-08 21:55:00
2:55 PM,37.9,28.0,68,30.20,10.0,Calm,Calm,-,N/A,,Clear,0,2012-12-08 22:55:00
3:55 PM,35.1,28.0,76,30.23,10.0,West,4.6,-,N/A,,Clear,280,2012-12-08 23:55:00
4:55 PM,33.1,27.0,78,30.25,10.0,Calm,Calm,-,N/A,,Clear,0,2012-12-09 00:55:00
5:55 PM,33.1,26.1,75,30.27,10.0,Calm,Calm,-,N/A,,Clear,0,2012-12-09 01:55:00
6:55 PM,33.1,25.0,72,30.29,10.0,Calm,Calm,-,N/A,,Clear,0,2012-12-09 02:55:00
7:55 PM,33.1,26.1,75,30.31,10.0,Calm,Calm,-,N/A,,Clear,0,2012-12-09 03:55:00
8:55 PM,33.1,26.1,75,30.32,10.0,Calm,Calm,-,N/A,,Clear,0,2012-12-09 04:55:00
9:55 PM,33.1,25.0,72,30.34,10.0,Calm,Calm,-,N/A,,Clear,0,2012-12-09 05:55:00
11:55 PM,32.0,24.1,73,30.37,10.0,Calm,Calm,-,N/A,,Clear,0,2012-12-09 07:55:00